Time;durP1;ratioP1;P1;durP2;ratioP2;P2;SDS_P1;SDS_P2;PMS_P1;PMS_P2;Temp;Humidity;BMP_temperature;BMP_pressure;BME280_temperature;BME280_humidity;BME280_pressure;Samples;Min_cycle;Max_cycle;Signal;HPM_P1;HPM_P2
2023/09/20 00:00:27;;;;;;;8.17;1.70;;;14.70;99.90;;;;;;4186971;28;20287;-83
2023/09/20 00:02:29;;;;;;;3.63;1.60;;;14.70;99.90;;;;;;4189343;28;20299;-80
2023/09/20 00:04:33;;;;;;;4.17;1.60;;;14.70;99.90;;;;;;4189996;28;20204;-82
2023/09/20 00:06:35;;;;;;;5.77;1.57;;;14.70;99.90;;;;;;4190496;28;20222;-80
2023/09/20 00:08:37;;;;;;;3.67;1.73;;;14.70;99.90;;;;;;4189901;28;20198;-82
2023/09/20 00:10:41;;;;;;;3.87;1.80;;;14.70;99.90;;;;;;4193097;28;20715;-80
2023/09/20 00:12:44;;;;;;;5.67;1.67;;;14.70;99.90;;;;;;4190393;28;20202;-79
2023/09/20 00:14:46;;;;;;;2.83;1.40;;;14.70;99.90;;;;;;4191209;28;20608;-81
2023/09/20 00:16:46;;;;;;;3.97;1.37;;;14.70;99.90;;;;;;4186883;28;20291;-79
2023/09/20 00:18:48;;;;;;;3.77;1.50;;;14.60;99.90;;;;;;4186297;28;20194;-81
2023/09/20 00:20:51;;;;;;;3.27;1.67;;;14.60;99.90;;;;;;4190268;28;20229;-81
2023/09/20 00:22:53;;;;;;;4.07;1.60;;;14.60;99.90;;;;;;4172113;28;20298;-79
2023/09/20 00:24:55;;;;;;;2.83;1.60;;;14.60;99.90;;;;;;4190970;28;20679;-81
2023/09/20 00:26:58;;;;;;;2.67;1.50;;;14.60;99.90;;;;;;4169347;28;20199;-80
2023/09/20 00:29:04;;;;;;;4.90;1.67;;;14.60;99.90;;;;;;4191155;28;20209;-81
2023/09/20 00:31:08;;;;;;;3.27;1.50;;;14.60;99.90;;;;;;4190448;28;20225;-79
2023/09/20 00:33:10;;;;;;;4.07;1.70;;;14.50;99.90;;;;;;4188890;28;20202;-80
2023/09/20 00:35:14;;;;;;;4.43;1.83;;;14.50;99.90;;;;;;4171253;28;20211;-79
2023/09/20 00:37:16;;;;;;;3.40;1.57;;;14.60;99.90;;;;;;4172415;28;20268;-83
2023/09/20 00:39:18;;;;;;;5.60;1.40;;;14.50;99.90;;;;;;4190521;28;20206;-83
2023/09/20 00:41:21;;;;;;;3.47;1.60;;;14.60;99.90;;;;;;4185674;28;20290;-83
2023/09/20 00:43:25;;;;;;;3.33;1.50;;;14.60;99.90;;;;;;4189958;28;20214;-81
2023/09/20 00:45:27;;;;;;;6.03;1.60;;;14.50;99.90;;;;;;4185478;28;20244;-80
2023/09/20 00:47:29;;;;;;;5.17;1.93;;;14.50;99.90;;;;;;4187246;28;20205;-80
2023/09/20 00:49:32;;;;;;;4.63;1.50;;;14.50;99.90;;;;;;4165678;28;20199;-79
2023/09/20 00:51:34;;;;;;;3.70;1.80;;;14.50;99.90;;;;;;4189386;28;20232;-80
2023/09/20 00:53:37;;;;;;;4.33;1.50;;;14.50;99.90;;;;;;4188768;28;20209;-79
2023/09/20 00:55:40;;;;;;;3.57;1.67;;;14.50;99.90;;;;;;4188486;28;20194;-80
2023/09/20 00:57:43;;;;;;;4.53;1.60;;;14.50;99.90;;;;;;4186279;28;20224;-81
2023/09/20 00:59:46;;;;;;;3.73;1.63;;;14.50;99.90;;;;;;4190671;28;20291;-81
2023/09/20 01:01:49;;;;;;;4.07;2.10;;;14.50;99.90;;;;;;4169847;28;20207;-81
2023/09/20 01:03:51;;;;;;;3.93;1.60;;;14.50;99.90;;;;;;4187049;28;20201;-82
2023/09/20 01:05:52;;;;;;;6.13;1.70;;;14.60;99.90;;;;;;4189578;28;20206;-79
2023/09/20 01:07:56;;;;;;;6.00;1.73;;;14.60;99.90;;;;;;4190930;28;20203;-82
2023/09/20 01:09:59;;;;;;;5.17;1.57;;;14.60;99.90;;;;;;4187212;28;20210;-79
2023/09/20 01:12:01;;;;;;;4.77;1.60;;;14.70;99.90;;;;;;4191286;28;20205;-79
2023/09/20 01:14:03;;;;;;;3.73;1.80;;;14.70;99.90;;;;;;4192262;28;20254;-79
2023/09/20 01:16:09;;;;;;;3.87;1.80;;;14.70;99.90;;;;;;4192485;28;20240;-80
2023/09/20 01:18:12;;;;;;;3.30;1.40;;;14.70;99.90;;;;;;4188267;28;20198;-82
2023/09/20 01:20:14;;;;;;;3.53;1.50;;;14.70;99.90;;;;;;4185642;28;20303;-79
2023/09/20 01:22:38;;;;;;;3.13;1.70;;;14.70;99.90;;;;;;4188872;28;20213;-79
2023/09/20 01:24:40;;;;;;;3.23;1.60;;;14.70;99.90;;;;;;4189241;28;20209;-80
2023/09/20 01:26:48;;;;;;;2.63;1.33;;;14.70;99.90;;;;;;4190372;28;20211;-80
2023/09/20 01:28:50;;;;;;;2.63;1.70;;;14.70;99.90;;;;;;4185203;28;20221;-80
2023/09/20 01:30:53;;;;;;;3.43;1.43;;;14.80;99.90;;;;;;4190129;28;20719;-83
2023/09/20 01:32:57;;;;;;;2.10;1.50;;;14.80;99.90;;;;;;4191768;28;20206;-79
2023/09/20 01:34:59;;;;;;;4.00;1.40;;;14.80;99.90;;;;;;4190773;28;20216;-83
2023/09/20 01:37:03;;;;;;;4.30;1.57;;;14.80;99.90;;;;;;4188787;28;20314;-84
2023/09/20 01:39:08;;;;;;;6.00;1.60;;;14.90;99.90;;;;;;4192981;28;20206;-82
2023/09/20 01:41:10;;;;;;;3.70;1.40;;;14.90;99.90;;;;;;4194690;28;20237;-80
2023/09/20 01:43:11;;;;;;;6.53;1.47;;;14.90;99.90;;;;;;4194851;28;20758;-80
2023/09/20 01:45:16;;;;;;;1.93;1.40;;;14.90;99.90;;;;;;4196511;28;20248;-79
2023/09/20 01:47:20;;;;;;;6.53;1.57;;;14.90;99.90;;;;;;4193718;28;20217;-83
2023/09/20 01:49:22;;;;;;;3.33;1.50;;;15.00;99.90;;;;;;4198594;28;20210;-81
2023/09/20 01:51:24;;;;;;;2.47;1.50;;;15.00;99.90;;;;;;4196900;28;20295;-80
2023/09/20 01:53:26;;;;;;;5.37;1.33;;;15.00;99.90;;;;;;4196849;28;20644;-83
2023/09/20 01:55:31;;;;;;;5.67;1.53;;;15.00;99.90;;;;;;4197406;28;20210;-82
2023/09/20 01:57:32;;;;;;;1.77;1.40;;;15.10;99.90;;;;;;4196542;28;20236;-81
2023/09/20 01:59:34;;;;;;;5.00;1.47;;;15.10;99.90;;;;;;4192227;28;20631;-82
2023/09/20 02:01:37;;;;;;;5.30;1.40;;;15.10;99.90;;;;;;4190060;28;20279;-80
2023/09/20 02:03:39;;;;;;;1.97;1.40;;;15.10;99.90;;;;;;4188789;28;20203;-81
2023/09/20 02:05:42;;;;;;;2.67;1.30;;;15.10;99.90;;;;;;4189510;28;20210;-83
2023/09/20 02:07:45;;;;;;;3.83;1.43;;;15.10;99.90;;;;;;4189064;28;20681;-83
2023/09/20 02:09:47;;;;;;;2.90;1.23;;;15.10;99.90;;;;;;4192684;28;20210;-79
2023/09/20 02:11:50;;;;;;;3.30;1.47;;;15.20;99.90;;;;;;4186218;28;20202;-80
2023/09/20 02:13:53;;;;;;;3.90;1.17;;;15.20;99.90;;;;;;4191724;28;20202;-83
2023/09/20 02:15:59;;;;;;;2.73;1.50;;;15.20;99.90;;;;;;4187636;28;20590;-80
2023/09/20 02:18:01;;;;;;;2.40;1.20;;;15.20;99.90;;;;;;4190236;28;20403;-79
2023/09/20 02:20:08;;;;;;;2.60;1.50;;;15.30;99.90;;;;;;4190600;28;20207;-80
2023/09/20 02:22:12;;;;;;;3.33;1.27;;;15.30;99.90;;;;;;4191579;28;20225;-83
2023/09/20 02:24:14;;;;;;;2.67;1.30;;;15.30;99.90;;;;;;4189033;28;20206;-79
2023/09/20 02:26:18;;;;;;;3.23;1.30;;;15.40;99.90;;;;;;4187086;28;20468;-81
2023/09/20 02:28:21;;;;;;;2.40;1.23;;;15.40;99.90;;;;;;4190779;28;20584;-81
2023/09/20 02:30:28;;;;;;;2.73;1.60;;;15.40;99.90;;;;;;4189218;28;20233;-85
2023/09/20 02:32:30;;;;;;;5.83;1.60;;;15.40;99.90;;;;;;4187430;28;20203;-81
2023/09/20 02:34:33;;;;;;;5.00;1.90;;;15.50;99.90;;;;;;4189918;28;20206;-82
2023/09/20 02:36:35;;;;;;;3.97;1.87;;;15.50;99.90;;;;;;4188375;28;20251;-80
2023/09/20 02:38:37;;;;;;;2.80;1.40;;;15.50;99.90;;;;;;4172132;28;20749;-81
2023/09/20 02:40:39;;;;;;;3.03;1.57;;;15.50;99.90;;;;;;4186122;28;20225;-79
2023/09/20 02:42:43;;;;;;;4.17;1.47;;;15.50;99.90;;;;;;4187584;28;20209;-82
2023/09/20 02:44:47;;;;;;;3.83;1.20;;;15.50;99.90;;;;;;4175317;28;20210;-84
2023/09/20 02:46:49;;;;;;;3.00;1.33;;;15.60;99.90;;;;;;4188235;28;20368;-80
2023/09/20 02:48:52;;;;;;;3.00;1.43;;;15.50;99.90;;;;;;4190909;28;20203;-80
2023/09/20 02:50:54;;;;;;;4.43;1.50;;;15.60;99.90;;;;;;4192379;28;20222;-80
2023/09/20 02:52:56;;;;;;;3.10;1.30;;;15.60;99.90;;;;;;4190103;28;20208;-82
2023/09/20 02:55:00;;;;;;;3.07;1.30;;;15.60;99.90;;;;;;4189211;28;20206;-79
2023/09/20 02:57:02;;;;;;;4.47;1.30;;;15.60;99.90;;;;;;4191282;28;20222;-79
2023/09/20 02:59:07;;;;;;;3.67;2.03;;;15.60;99.90;;;;;;4191350;28;20203;-79
2023/09/20 03:01:10;;;;;;;4.00;1.50;;;15.60;99.90;;;;;;4189281;28;20228;-82
2023/09/20 03:03:15;;;;;;;4.77;1.83;;;15.60;99.90;;;;;;4190777;28;20256;-80
2023/09/20 03:05:18;;;;;;;2.83;1.97;;;15.60;99.90;;;;;;4188188;28;20202;-79
2023/09/20 03:07:21;;;;;;;2.43;1.30;;;15.60;99.90;;;;;;4186750;28;20206;-79
2023/09/20 03:09:24;;;;;;;2.63;1.50;;;15.60;99.90;;;;;;4187127;28;20210;-82
2023/09/20 03:11:26;;;;;;;4.10;1.40;;;15.50;99.90;;;;;;4187355;28;20777;-80
2023/09/20 03:13:28;;;;;;;4.23;2.10;;;15.50;99.90;;;;;;4189280;28;20219;-81
2023/09/20 03:15:31;;;;;;;2.73;1.47;;;15.50;99.90;;;;;;4173161;28;20298;-79
2023/09/20 03:17:34;;;;;;;7.50;1.80;;;15.50;99.90;;;;;;4170340;28;20276;-82
2023/09/20 03:19:36;;;;;;;2.93;1.40;;;15.50;99.90;;;;;;4191251;28;20220;-83
2023/09/20 03:21:38;;;;;;;3.27;1.43;;;15.50;99.90;;;;;;4190192;28;20218;-79
2023/09/20 03:23:40;;;;;;;1.70;1.20;;;15.50;99.90;;;;;;4188410;28;20201;-80
2023/09/20 03:25:42;;;;;;;5.17;1.60;;;15.40;99.90;;;;;;4189633;28;20230;-79
2023/09/20 03:27:44;;;;;;;2.20;1.13;;;15.40;99.90;;;;;;4196345;28;20205;-83
2023/09/20 03:29:46;;;;;;;5.03;1.47;;;15.40;99.90;;;;;;4196033;28;20266;-82
2023/09/20 03:31:49;;;;;;;3.43;1.40;;;15.40;99.90;;;;;;4198065;28;20281;-80
2023/09/20 03:33:52;;;;;;;1.87;1.13;;;15.40;99.90;;;;;;4197801;28;20226;-81
2023/09/20 03:35:54;;;;;;;1.87;1.20;;;15.40;99.90;;;;;;4196439;28;20214;-82
2023/09/20 03:37:56;;;;;;;2.57;1.27;;;15.40;99.90;;;;;;4197100;28;20233;-82
2023/09/20 03:39:58;;;;;;;3.90;1.50;;;15.30;99.90;;;;;;4196010;28;20201;-82
2023/09/20 03:42:00;;;;;;;3.67;1.60;;;15.30;99.90;;;;;;4194696;28;20556;-81
2023/09/20 03:44:02;;;;;;;1.73;1.37;;;15.30;99.90;;;;;;4193150;28;20215;-81
2023/09/20 03:46:04;;;;;;;3.30;1.27;;;15.30;99.90;;;;;;4199762;28;20210;-81
2023/09/20 03:48:07;;;;;;;3.33;1.53;;;15.30;99.90;;;;;;4193052;28;20195;-81
2023/09/20 03:50:10;;;;;;;2.73;1.37;;;15.30;99.90;;;;;;4195567;28;20235;-81
2023/09/20 03:52:12;;;;;;;2.97;1.57;;;15.20;99.90;;;;;;4201659;28;20210;-80
2023/09/20 03:54:16;;;;;;;3.97;1.20;;;15.20;99.90;;;;;;4205584;28;20206;-80
2023/09/20 03:56:17;;;;;;;4.27;1.30;;;15.20;99.90;;;;;;4204356;28;20210;-80
2023/09/20 03:58:20;;;;;;;4.17;1.87;;;15.20;99.90;;;;;;4200210;28;20202;-81
2023/09/20 04:00:28;;;;;;;3.03;1.33;;;15.10;99.90;;;;;;4196937;28;20226;-80
2023/09/20 04:02:30;;;;;;;2.60;1.40;;;15.10;99.90;;;;;;4198786;28;20202;-80
2023/09/20 04:04:34;;;;;;;3.40;1.40;;;15.10;99.90;;;;;;4201384;28;20212;-80
2023/09/20 04:06:38;;;;;;;5.50;1.63;;;15.10;99.90;;;;;;4201285;28;20192;-80
2023/09/20 04:08:39;;;;;;;2.03;1.30;;;14.90;99.90;;;;;;4201500;28;20227;-81
2023/09/20 04:10:42;;;;;;;1.90;1.33;;;15.00;99.90;;;;;;4202237;28;20240;-80
2023/09/20 04:12:45;;;;;;;3.80;1.53;;;15.00;99.90;;;;;;4205110;28;20210;-80
2023/09/20 04:14:47;;;;;;;4.43;1.40;;;15.00;99.90;;;;;;4202845;28;20229;-80
2023/09/20 04:16:49;;;;;;;3.90;1.50;;;15.00;99.90;;;;;;4200858;28;20221;-80
2023/09/20 04:18:51;;;;;;;3.40;2.03;;;15.00;99.90;;;;;;4201166;28;20205;-83
2023/09/20 04:20:52;;;;;;;7.83;3.07;;;15.00;99.90;;;;;;4192962;28;20225;-82
2023/09/20 04:22:55;;;;;;;2.23;1.50;;;15.00;99.90;;;;;;4194150;28;20607;-81
2023/09/20 04:24:58;;;;;;;6.17;1.47;;;14.90;99.90;;;;;;4192240;28;21150;-82
2023/09/20 04:26:59;;;;;;;4.23;1.30;;;14.90;99.90;;;;;;4189441;28;20323;-82
2023/09/20 04:29:01;;;;;;;3.57;1.43;;;14.90;99.90;;;;;;4188398;28;20233;-81
2023/09/20 04:31:04;;;;;;;2.67;1.40;;;14.90;99.90;;;;;;4188679;28;20213;-79
2023/09/20 04:33:10;;;;;;;8.57;1.60;;;14.90;99.90;;;;;;4186379;28;20213;-81
2023/09/20 04:35:12;;;;;;;4.73;1.40;;;14.90;99.90;;;;;;4188392;28;20207;-80
2023/09/20 04:37:14;;;;;;;2.83;1.43;;;14.90;99.90;;;;;;4187601;28;20294;-83
2023/09/20 04:39:17;;;;;;;3.60;1.50;;;14.90;99.90;;;;;;4186686;28;20214;-83
2023/09/20 04:41:19;;;;;;;3.23;1.43;;;15.00;99.90;;;;;;4188804;28;20244;-80
2023/09/20 04:43:21;;;;;;;6.80;2.50;;;14.90;99.90;;;;;;4189917;28;20201;-82
2023/09/20 04:45:23;;;;;;;16.43;6.97;;;14.90;99.90;;;;;;4184730;28;20284;-80
2023/09/20 04:47:25;;;;;;;5.27;2.60;;;14.90;99.90;;;;;;4186569;28;20206;-80
2023/09/20 04:49:27;;;;;;;3.87;1.57;;;14.90;99.90;;;;;;4169477;28;20229;-81
2023/09/20 04:51:30;;;;;;;5.70;1.77;;;14.90;99.90;;;;;;4168245;28;20259;-82
2023/09/20 04:53:34;;;;;;;4.03;1.40;;;14.90;99.90;;;;;;4187517;28;20573;-80
2023/09/20 04:55:38;;;;;;;4.93;1.47;;;14.90;99.90;;;;;;4191211;28;20288;-81
2023/09/20 04:57:40;;;;;;;4.17;1.63;;;14.90;99.90;;;;;;4190621;28;20311;-80
2023/09/20 04:59:42;;;;;;;4.43;1.30;;;14.90;99.90;;;;;;4188462;28;20241;-81
2023/09/20 05:01:44;;;;;;;2.77;1.30;;;14.90;99.90;;;;;;4188286;28;20276;-82
2023/09/20 05:03:50;;;;;;;2.37;1.30;;;14.90;99.90;;;;;;4190316;28;20213;-79
2023/09/20 05:05:53;;;;;;;3.47;1.50;;;14.90;99.90;;;;;;4186766;28;20265;-83
2023/09/20 05:07:54;;;;;;;2.10;1.23;;;14.90;99.90;;;;;;4190195;28;20221;-79
2023/09/20 05:09:56;;;;;;;4.20;1.60;;;14.90;99.90;;;;;;4192975;28;20212;-80
2023/09/20 05:11:59;;;;;;;4.83;1.60;;;14.90;99.90;;;;;;4189103;28;20218;-79
2023/09/20 05:14:01;;;;;;;3.20;1.60;;;14.90;99.90;;;;;;4190107;28;20244;-79
2023/09/20 05:16:04;;;;;;;6.00;2.00;;;14.90;99.90;;;;;;4190029;28;20259;-81
2023/09/20 05:18:06;;;;;;;2.83;1.90;;;15.00;99.90;;;;;;4189755;28;20712;-81
2023/09/20 05:20:09;;;;;;;3.20;1.83;;;14.90;99.90;;;;;;4190197;28;20633;-80
2023/09/20 05:22:12;;;;;;;3.87;1.40;;;14.90;99.90;;;;;;4191645;28;20205;-80
2023/09/20 05:24:14;;;;;;;4.40;1.30;;;15.00;99.90;;;;;;4190619;28;20221;-81
2023/09/20 05:26:18;;;;;;;3.43;1.40;;;15.00;99.90;;;;;;4190373;28;20288;-79
2023/09/20 05:28:25;;;;;;;2.73;1.37;;;15.00;99.90;;;;;;4192528;28;20639;-79
2023/09/20 05:30:27;;;;;;;4.53;1.50;;;15.00;99.90;;;;;;4190070;28;20229;-83
2023/09/20 05:32:31;;;;;;;2.50;1.37;;;15.00;99.90;;;;;;4195347;28;20198;-89
2023/09/20 05:34:34;;;;;;;4.37;1.40;;;15.00;99.90;;;;;;4198091;28;20245;-81
2023/09/20 05:36:37;;;;;;;3.90;1.30;;;15.00;99.90;;;;;;4198656;28;20262;-81
2023/09/20 05:38:39;;;;;;;3.10;1.43;;;15.00;99.90;;;;;;4192028;28;20294;-78
2023/09/20 05:40:43;;;;;;;5.20;1.50;;;15.00;99.90;;;;;;4216997;22;20559;-75
2023/09/20 05:42:45;;;;;;;2.67;1.50;;;14.90;99.90;;;;;;4187699;28;20205;-78
2023/09/20 05:44:48;;;;;;;3.33;1.30;;;15.00;99.90;;;;;;4174665;28;20222;-77
2023/09/20 05:46:51;;;;;;;6.43;1.50;;;15.00;99.90;;;;;;4187976;28;20599;-78
2023/09/20 05:48:53;;;;;;;3.63;1.43;;;15.00;99.90;;;;;;4188151;28;20290;-77
2023/09/20 05:50:55;;;;;;;2.57;1.40;;;15.00;99.90;;;;;;4185508;28;20229;-78
2023/09/20 05:52:57;;;;;;;4.23;1.67;;;15.00;99.90;;;;;;4169865;28;20682;-78
2023/09/20 05:54:59;;;;;;;6.07;1.40;;;15.10;99.90;;;;;;4187886;28;20202;-78
2023/09/20 05:57:03;;;;;;;4.77;1.40;;;15.10;99.90;;;;;;4186602;28;20202;-76
2023/09/20 05:59:07;;;;;;;2.37;1.40;;;15.10;99.90;;;;;;4186156;28;20223;-78
2023/09/20 06:01:10;;;;;;;5.60;1.60;;;15.10;99.90;;;;;;4187714;28;20242;-77
2023/09/20 06:03:12;;;;;;;3.60;1.70;;;15.10;99.90;;;;;;4189564;28;20213;-77
2023/09/20 06:05:14;;;;;;;3.07;1.43;;;15.20;99.90;;;;;;4187593;28;20202;-77
2023/09/20 06:07:16;;;;;;;4.50;1.80;;;15.20;99.90;;;;;;4163495;28;20211;-77
2023/09/20 06:09:18;;;;;;;5.97;1.60;;;15.20;99.90;;;;;;4189979;28;20221;-77
2023/09/20 06:11:20;;;;;;;7.07;1.57;;;15.20;99.90;;;;;;4190416;28;21168;-77
2023/09/20 06:13:22;;;;;;;7.07;1.80;;;15.30;99.90;;;;;;4188280;28;20699;-77
2023/09/20 06:15:25;;;;;;;2.40;1.30;;;15.30;99.90;;;;;;4186263;28;20200;-77
2023/09/20 06:17:31;;;;;;;2.50;1.17;;;15.30;99.90;;;;;;4188283;28;20206;-77
2023/09/20 06:19:34;;;;;;;2.80;1.13;;;15.40;99.90;;;;;;4186138;28;20205;-78
2023/09/20 06:21:36;;;;;;;4.03;1.80;;;15.40;99.90;;;;;;4187280;28;20223;-77
2023/09/20 06:23:39;;;;;;;3.03;1.30;;;15.50;99.90;;;;;;4172819;28;20221;-77
2023/09/20 06:25:42;;;;;;;2.80;1.30;;;15.50;99.90;;;;;;4187174;28;20233;-76
2023/09/20 06:27:44;;;;;;;3.93;1.40;;;15.50;99.90;;;;;;4186058;28;20202;-76
2023/09/20 06:29:46;;;;;;;4.47;1.33;;;15.60;99.90;;;;;;4183334;28;20209;-76
2023/09/20 06:31:48;;;;;;;2.40;1.27;;;15.60;99.90;;;;;;4190272;28;20226;-75
2023/09/20 06:33:51;;;;;;;6.60;2.00;;;15.70;99.90;;;;;;4185710;28;20206;-75
2023/09/20 06:35:55;;;;;;;3.47;1.67;;;15.70;99.90;;;;;;4184834;28;20211;-76
2023/09/20 06:37:58;;;;;;;2.67;1.20;;;15.80;99.90;;;;;;4184850;28;20734;-76
2023/09/20 06:40:00;;;;;;;4.87;1.50;;;15.90;99.90;;;;;;4186120;28;20200;-75
2023/09/20 06:42:03;;;;;;;3.03;1.70;;;15.90;99.90;;;;;;4186841;28;20297;-74
2023/09/20 06:44:05;;;;;;;2.27;1.30;;;16.00;99.90;;;;;;4185693;28;20216;-78
2023/09/20 06:46:06;;;;;;;3.33;1.20;;;16.10;99.90;;;;;;4185449;28;20211;-77
2023/09/20 06:48:09;;;;;;;3.33;1.20;;;16.30;99.90;;;;;;4185639;28;20210;-76
2023/09/20 06:50:13;;;;;;;4.07;1.30;;;16.30;99.90;;;;;;4186198;28;20213;-77
2023/09/20 06:52:15;;;;;;;3.33;1.50;;;16.40;99.90;;;;;;4189418;28;20249;-78
2023/09/20 06:54:17;;;;;;;2.93;1.27;;;16.50;99.90;;;;;;4185843;28;20857;-77
2023/09/20 06:56:19;;;;;;;2.77;1.10;;;16.70;99.90;;;;;;4186114;28;20214;-77
2023/09/20 06:58:21;;;;;;;3.73;1.20;;;16.80;99.90;;;;;;4187062;28;20939;-75
2023/09/20 07:00:25;;;;;;;2.20;1.40;;;16.80;99.90;;;;;;4186055;28;20273;-78
2023/09/20 07:02:27;;;;;;;2.63;1.27;;;16.90;99.90;;;;;;4190048;28;20268;-79
2023/09/20 07:04:30;;;;;;;4.90;1.23;;;17.00;99.90;;;;;;4195322;28;20779;-76
2023/09/20 07:06:33;;;;;;;4.83;1.20;;;17.10;99.90;;;;;;4200231;28;20236;-76
2023/09/20 07:08:35;;;;;;;4.10;1.20;;;17.20;99.90;;;;;;4196110;28;20262;-75
2023/09/20 07:10:41;;;;;;;4.57;1.03;;;17.20;99.90;;;;;;4198434;28;20285;-75
2023/09/20 07:12:43;;;;;;;4.63;1.27;;;17.30;99.90;;;;;;4195936;28;20209;-75
2023/09/20 07:14:47;;;;;;;5.63;1.53;;;17.40;99.90;;;;;;4190930;28;20213;-75
2023/09/20 07:16:50;;;;;;;3.50;1.00;;;17.50;99.90;;;;;;4186525;28;20300;-75
2023/09/20 07:18:51;;;;;;;3.10;1.20;;;17.60;99.90;;;;;;4187426;28;20270;-75
2023/09/20 07:20:55;;;;;;;4.33;1.20;;;17.70;99.90;;;;;;4186345;28;20316;-75
2023/09/20 07:22:59;;;;;;;3.80;1.40;;;17.80;99.90;;;;;;4186798;28;20209;-75
2023/09/20 07:25:05;;;;;;;3.60;1.27;;;17.80;99.90;;;;;;4187567;28;20209;-75
2023/09/20 07:27:09;;;;;;;3.17;1.40;;;17.90;99.90;;;;;;4185990;28;20252;-76
2023/09/20 07:29:14;;;;;;;6.53;1.40;;;17.90;99.90;;;;;;4182193;28;20209;-76
2023/09/20 07:31:20;;;;;;;3.80;1.23;;;18.00;99.90;;;;;;4168734;28;20235;-76
2023/09/20 07:33:24;;;;;;;3.70;1.37;;;18.10;99.90;;;;;;4187040;28;20221;-76
2023/09/20 07:35:26;;;;;;;4.23;1.33;;;18.20;99.90;;;;;;4182803;28;20213;-75
2023/09/20 07:37:28;;;;;;;2.57;1.20;;;18.20;99.90;;;;;;4186357;28;20495;-75
2023/09/20 07:39:31;;;;;;;5.03;1.23;;;18.20;99.90;;;;;;4183988;28;20221;-76
2023/09/20 07:41:33;;;;;;;3.00;1.40;;;18.40;99.90;;;;;;4168842;28;20242;-76
2023/09/20 07:43:37;;;;;;;7.57;1.20;;;18.50;99.90;;;;;;4184550;28;20309;-76
2023/09/20 07:45:39;;;;;;;4.30;1.30;;;18.60;99.90;;;;;;4188279;28;20236;-76
2023/09/20 07:47:43;;;;;;;2.80;1.20;;;18.70;99.90;;;;;;4187463;28;20206;-76
2023/09/20 07:49:45;;;;;;;4.63;1.10;;;18.70;99.90;;;;;;4182730;28;20206;-76
2023/09/20 07:51:48;;;;;;;6.37;1.20;;;18.80;99.90;;;;;;4168006;28;20231;-76
2023/09/20 07:53:53;;;;;;;7.37;1.27;;;18.90;99.90;;;;;;4185143;28;20372;-76
2023/09/20 07:56:01;;;;;;;4.13;1.20;;;18.90;99.90;;;;;;4169542;28;20214;-76
2023/09/20 07:58:03;;;;;;;3.53;1.33;;;19.00;99.90;;;;;;4187471;28;20262;-77
2023/09/20 08:00:10;;;;;;;3.33;1.40;;;19.10;99.90;;;;;;4168795;28;20470;-78
2023/09/20 08:02:15;;;;;;;4.23;1.20;;;19.10;99.90;;;;;;4169571;28;20219;-77
2023/09/20 08:04:17;;;;;;;4.00;1.47;;;19.30;99.90;;;;;;4185946;28;20620;-77
2023/09/20 08:06:19;;;;;;;5.03;1.43;;;19.30;99.90;;;;;;4169724;28;20672;-77
2023/09/20 08:08:22;;;;;;;4.00;1.20;;;19.30;99.90;;;;;;4188195;28;20202;-77
2023/09/20 08:10:24;;;;;;;3.67;1.50;;;19.40;99.90;;;;;;4187567;28;20240;-77
2023/09/20 08:12:27;;;;;;;3.77;1.47;;;19.50;99.90;;;;;;4186962;28;20206;-77
2023/09/20 08:14:30;;;;;;;4.20;1.30;;;19.60;99.90;;;;;;4183467;28;20582;-77
2023/09/20 08:16:33;;;;;;;3.00;1.20;;;19.60;99.90;;;;;;4186088;28;20213;-77
2023/09/20 08:20:53;;;;;;;6.63;1.43;;;19.70;99.90;;;;;;4185182;28;20238;-77
2023/09/20 09:00:27;;;;;;;7.27;1.60;;;21.10;99.90;;;;;;4185255;28;20227;-77
2023/09/20 09:02:30;;;;;;;2.83;1.20;;;21.10;99.90;;;;;;4188137;28;20201;-77
2023/09/20 09:04:34;;;;;;;6.90;2.27;;;21.20;99.90;;;;;;4186151;28;20205;-77
2023/09/20 09:06:36;;;;;;;6.30;2.37;;;21.10;99.90;;;;;;4173251;28;20723;-77
2023/09/20 09:08:38;;;;;;;8.23;1.90;;;21.10;99.90;;;;;;4187236;28;20229;-77
2023/09/20 09:10:40;;;;;;;6.27;1.40;;;21.10;99.90;;;;;;4186348;28;20225;-77
2023/09/20 09:12:42;;;;;;;2.03;1.20;;;21.10;99.90;;;;;;4188595;28;20676;-77
2023/09/20 09:14:44;;;;;;;4.50;1.43;;;21.10;99.90;;;;;;4187986;28;20218;-77
2023/09/20 09:16:46;;;;;;;5.27;1.50;;;21.10;99.90;;;;;;4170049;28;20273;-77
2023/09/20 09:18:49;;;;;;;5.50;1.37;;;21.20;99.90;;;;;;4180246;28;20288;-77
2023/09/20 09:20:53;;;;;;;3.50;1.50;;;21.10;99.90;;;;;;4190630;28;20230;-78
2023/09/20 09:22:55;;;;;;;3.53;1.30;;;21.10;99.90;;;;;;4196727;28;20215;-78
2023/09/20 09:25:00;;;;;;;7.00;1.73;;;21.10;99.90;;;;;;4199051;28;20286;-77
2023/09/20 09:27:06;;;;;;;6.10;1.73;;;21.20;99.90;;;;;;4199779;28;20212;-77
2023/09/20 09:29:09;;;;;;;3.50;1.50;;;21.20;99.90;;;;;;4195303;28;20212;-77
2023/09/20 09:31:10;;;;;;;3.43;1.20;;;21.20;99.90;;;;;;4201204;28;20322;-77
2023/09/20 09:33:17;;;;;;;5.97;1.30;;;21.20;99.90;;;;;;4198493;28;20224;-78
2023/09/20 09:35:19;;;;;;;5.17;1.73;;;21.20;99.90;;;;;;4190850;28;20207;-77
2023/09/20 09:37:21;;;;;;;5.67;1.47;;;21.20;99.90;;;;;;4192496;28;20214;-78
2023/09/20 09:39:24;;;;;;;7.37;1.50;;;21.30;99.90;;;;;;4185699;28;20217;-77
2023/09/20 09:41:42;;;;;;;3.90;1.30;;;21.40;99.90;;;;;;4185339;28;20323;-78
2023/09/20 09:43:56;;;;;;;8.03;1.87;;;21.40;99.90;;;;;;4189631;28;20222;-78
2023/09/20 09:46:06;;;;;;;3.93;1.30;;;21.50;99.90;;;;;;4188041;28;20579;-78
2023/09/20 09:48:08;;;;;;;2.60;1.00;;;21.60;99.90;;;;;;4187544;28;20209;-78
2023/09/20 09:50:13;;;;;;;2.27;1.30;;;21.70;99.90;;;;;;4187248;28;20205;-78
2023/09/20 09:52:16;;;;;;;9.37;1.50;;;21.70;99.90;;;;;;4187687;28;20716;-78
2023/09/20 09:54:19;;;;;;;3.53;1.33;;;21.80;99.90;;;;;;4186003;28;20293;-78
2023/09/20 09:56:21;;;;;;;4.17;1.50;;;21.80;99.90;;;;;;4188458;28;20693;-78
2023/09/20 09:58:23;;;;;;;5.60;1.50;;;21.90;99.90;;;;;;4187822;28;20204;-78
2023/09/20 10:00:26;;;;;;;5.33;1.40;;;22.00;99.90;;;;;;4184408;28;20702;-78
2023/09/20 10:02:32;;;;;;;5.20;1.30;;;22.00;99.90;;;;;;4190236;28;20786;-77
2023/09/20 10:04:36;;;;;;;4.90;1.57;;;22.10;99.90;;;;;;4189218;28;20212;-77
2023/09/20 10:06:50;;;;;;;6.70;1.70;;;22.20;99.90;;;;;;4186312;28;20222;-78
2023/09/20 10:08:54;;;;;;;3.40;1.60;;;22.20;99.90;;;;;;4168224;28;20206;-78
2023/09/20 10:10:59;;;;;;;4.67;1.50;;;22.20;99.90;;;;;;4185813;28;20253;-77
2023/09/20 10:13:03;;;;;;;3.67;1.40;;;22.30;99.90;;;;;;4190436;28;20463;-77
2023/09/20 10:15:08;;;;;;;6.13;1.57;;;22.30;99.90;;;;;;4168717;28;20215;-78
2023/09/20 10:17:16;;;;;;;4.67;1.70;;;22.40;99.90;;;;;;4186474;28;20198;-78
2023/09/20 10:19:18;;;;;;;3.53;1.40;;;22.50;99.90;;;;;;4184382;28;20221;-78
2023/09/20 10:21:24;;;;;;;3.17;1.33;;;22.50;99.90;;;;;;4187513;28;20226;-78
2023/09/20 10:23:28;;;;;;;6.03;1.60;;;22.50;99.90;;;;;;4187389;28;20626;-77
2023/09/20 10:25:32;;;;;;;3.53;1.30;;;22.60;99.90;;;;;;4187350;28;20210;-78
2023/09/20 10:27:35;;;;;;;3.53;1.33;;;22.60;99.90;;;;;;4183600;28;20210;-78
2023/09/20 10:29:40;;;;;;;4.33;1.80;;;22.50;99.90;;;;;;4189637;28;20320;-79
2023/09/20 10:31:42;;;;;;;5.87;1.40;;;22.60;99.90;;;;;;4189936;28;20288;-78
2023/09/20 10:33:47;;;;;;;5.50;1.33;;;22.60;99.90;;;;;;4187876;28;20202;-78
2023/09/20 10:35:50;;;;;;;3.33;1.43;;;22.70;99.90;;;;;;4188007;28;20617;-78
2023/09/20 10:38:20;;;;;;;3.07;1.50;;;22.70;99.90;;;;;;4185147;28;20210;-78
2023/09/20 10:40:24;;;;;;;4.90;1.37;;;22.80;99.90;;;;;;4184879;28;20226;-78
2023/09/20 10:42:28;;;;;;;4.43;1.60;;;22.90;99.90;;;;;;4187555;28;20210;-78
2023/09/20 10:44:31;;;;;;;10.50;1.90;;;23.00;99.90;;;;;;4187611;28;20704;-77
2023/09/20 10:46:36;;;;;;;4.90;1.63;;;23.10;99.90;;;;;;4187275;28;20210;-77
2023/09/20 10:48:41;;;;;;;5.83;1.40;;;23.10;99.90;;;;;;4188343;28;20213;-76
2023/09/20 10:50:49;;;;;;;2.40;1.30;;;23.10;99.90;;;;;;4186226;28;20233;-77
2023/09/20 10:52:56;;;;;;;4.87;1.70;;;23.20;99.90;;;;;;4187956;28;20260;-77
2023/09/20 10:55:43;;;;;;;5.60;1.60;;;23.20;99.90;;;;;;4185147;28;20744;-77
2023/09/20 10:57:47;;;;;;;3.83;1.30;;;23.30;99.90;;;;;;4119559;28;20320;-77
2023/09/20 10:59:49;;;;;;;5.20;1.47;;;23.40;99.90;;;;;;4152628;28;20249;-76
2023/09/20 11:01:50;;;;;;;3.80;1.50;;;23.40;99.90;;;;;;4187491;28;20226;-76
2023/09/20 11:03:54;;;;;;;5.37;1.40;;;23.50;99.90;;;;;;4184434;28;20213;-77
2023/09/20 11:05:56;;;;;;;3.63;1.30;;;23.50;99.90;;;;;;4187416;28;20620;-76
2023/09/20 11:08:03;;;;;;;4.63;1.50;;;23.60;99.90;;;;;;4167330;28;20221;-77
2023/09/20 11:10:07;;;;;;;4.30;1.33;;;23.70;99.90;;;;;;4185450;28;20569;-76
2023/09/20 11:12:09;;;;;;;3.67;1.53;;;23.80;99.90;;;;;;4184909;28;20256;-77
2023/09/20 11:14:13;;;;;;;6.20;2.80;;;23.80;99.90;;;;;;4187049;28;20301;-77
2023/09/20 11:16:20;;;;;;;2.97;1.70;;;23.80;99.90;;;;;;4189213;28;20304;-77
2023/09/20 11:18:22;;;;;;;3.47;1.40;;;24.00;99.90;;;;;;4182349;28;20241;-77
2023/09/20 11:20:24;;;;;;;4.60;1.40;;;24.00;99.90;;;;;;4185337;28;20249;-77
2023/09/20 11:22:26;;;;;;;2.70;1.40;;;24.10;99.90;;;;;;4189528;28;20225;-77